sensor_id;sensor_type;location;lat;lon;timestamp;P1;durP1;ratioP1;P2;durP2;ratioP2
5688;SDS011;2869;50.432;8.680;2022-09-01T00:00:55;4.03;;;3.63;;
5688;SDS011;2869;50.432;8.680;2022-09-01T00:03:21;4.20;;;3.90;;
5688;SDS011;2869;50.432;8.680;2022-09-01T00:05:49;4.17;;;3.83;;
5688;SDS011;2869;50.432;8.680;2022-09-01T00:08:21;3.87;;;3.57;;
5688;SDS011;2869;50.432;8.680;2022-09-01T00:10:48;3.80;;;3.50;;
5688;SDS011;2869;50.432;8.680;2022-09-01T00:13:15;3.73;;;3.47;;
5688;SDS011;2869;50.432;8.680;2022-09-01T00:15:42;4.73;;;3.80;;
5688;SDS011;2869;50.432;8.680;2022-09-01T00:18:10;4.00;;;3.70;;
5688;SDS011;2869;50.432;8.680;2022-09-01T00:20:37;5.90;;;4.10;;
5688;SDS011;2869;50.432;8.680;2022-09-01T00:23:04;4.10;;;3.70;;
5688;SDS011;2869;50.432;8.680;2022-09-01T00:25:30;4.70;;;4.30;;
5688;SDS011;2869;50.432;8.680;2022-09-01T00:27:57;3.97;;;3.67;;
5688;SDS011;2869;50.432;8.680;2022-09-01T00:30:28;4.40;;;3.87;;
5688;SDS011;2869;50.432;8.680;2022-09-01T00:32:55;5.73;;;3.90;;
5688;SDS011;2869;50.432;8.680;2022-09-01T00:35:23;4.70;;;4.23;;
5688;SDS011;2869;50.432;8.680;2022-09-01T00:37:50;7.93;;;4.00;;
5688;SDS011;2869;50.432;8.680;2022-09-01T00:40:17;5.37;;;3.80;;
5688;SDS011;2869;50.432;8.680;2022-09-01T00:42:44;3.87;;;3.50;;
5688;SDS011;2869;50.432;8.680;2022-09-01T00:45:13;4.17;;;3.87;;
5688;SDS011;2869;50.432;8.680;2022-09-01T00:47:40;5.43;;;3.57;;
5688;SDS011;2869;50.432;8.680;2022-09-01T00:50:07;4.80;;;3.90;;
5688;SDS011;2869;50.432;8.680;2022-09-01T00:52:37;4.60;;;4.30;;
5688;SDS011;2869;50.432;8.680;2022-09-01T00:55:09;3.87;;;3.20;;
5688;SDS011;2869;50.432;8.680;2022-09-01T00:57:38;4.40;;;4.00;;
5688;SDS011;2869;50.432;8.680;2022-09-01T01:00:06;5.00;;;3.83;;
5688;SDS011;2869;50.432;8.680;2022-09-01T01:02:35;3.60;;;3.37;;
5688;SDS011;2869;50.432;8.680;2022-09-01T01:05:03;4.10;;;3.70;;
5688;SDS011;2869;50.432;8.680;2022-09-01T01:07:30;4.40;;;3.63;;
5688;SDS011;2869;50.432;8.680;2022-09-01T01:10:08;4.53;;;3.77;;
5688;SDS011;2869;50.432;8.680;2022-09-01T01:12:36;5.47;;;3.80;;
5688;SDS011;2869;50.432;8.680;2022-09-01T01:15:04;4.97;;;3.90;;
5688;SDS011;2869;50.432;8.680;2022-09-01T01:17:33;4.47;;;3.60;;
5688;SDS011;2869;50.432;8.680;2022-09-01T01:20:00;4.90;;;4.10;;
5688;SDS011;2869;50.432;8.680;2022-09-01T01:22:48;5.23;;;3.87;;
5688;SDS011;2869;50.432;8.680;2022-09-01T01:25:31;5.27;;;3.93;;
5688;SDS011;2869;50.432;8.680;2022-09-01T01:28:05;7.37;;;4.20;;
5688;SDS011;2869;50.432;8.680;2022-09-01T01:30:34;4.40;;;4.10;;
5688;SDS011;2869;50.432;8.680;2022-09-01T01:33:03;4.23;;;3.93;;
5688;SDS011;2869;50.432;8.680;2022-09-01T01:35:31;6.03;;;3.80;;
5688;SDS011;2869;50.432;8.680;2022-09-01T01:37:59;4.40;;;4.00;;
5688;SDS011;2869;50.432;8.680;2022-09-01T01:40:26;5.80;;;4.07;;
5688;SDS011;2869;50.432;8.680;2022-09-01T01:42:55;4.43;;;3.40;;
5688;SDS011;2869;50.432;8.680;2022-09-01T01:45:25;3.90;;;3.60;;
5688;SDS011;2869;50.432;8.680;2022-09-01T01:47:52;4.30;;;3.70;;
5688;SDS011;2869;50.432;8.680;2022-09-01T01:50:20;4.70;;;3.60;;
5688;SDS011;2869;50.432;8.680;2022-09-01T01:52:47;3.90;;;3.60;;
5688;SDS011;2869;50.432;8.680;2022-09-01T01:55:14;4.03;;;3.70;;
5688;SDS011;2869;50.432;8.680;2022-09-01T01:57:43;3.70;;;3.40;;
5688;SDS011;2869;50.432;8.680;2022-09-01T02:00:14;4.23;;;3.47;;
5688;SDS011;2869;50.432;8.680;2022-09-01T02:02:43;8.63;;;3.70;;
5688;SDS011;2869;50.432;8.680;2022-09-01T02:05:16;5.73;;;4.00;;
5688;SDS011;2869;50.432;8.680;2022-09-01T02:07:45;5.60;;;3.43;;
5688;SDS011;2869;50.432;8.680;2022-09-01T02:10:12;6.07;;;4.00;;
5688;SDS011;2869;50.432;8.680;2022-09-01T02:12:39;4.00;;;3.43;;
5688;SDS011;2869;50.432;8.680;2022-09-01T02:15:07;4.03;;;3.83;;
5688;SDS011;2869;50.432;8.680;2022-09-01T02:17:37;4.20;;;3.80;;
5688;SDS011;2869;50.432;8.680;2022-09-01T02:20:07;7.07;;;3.60;;
5688;SDS011;2869;50.432;8.680;2022-09-01T02:22:34;4.00;;;3.70;;
5688;SDS011;2869;50.432;8.680;2022-09-01T02:25:02;3.97;;;3.57;;
5688;SDS011;2869;50.432;8.680;2022-09-01T02:27:29;7.60;;;3.57;;
5688;SDS011;2869;50.432;8.680;2022-09-01T02:29:58;4.07;;;3.77;;
5688;SDS011;2869;50.432;8.680;2022-09-01T02:32:25;3.80;;;3.50;;
5688;SDS011;2869;50.432;8.680;2022-09-01T02:34:53;3.73;;;3.43;;
5688;SDS011;2869;50.432;8.680;2022-09-01T02:37:25;4.43;;;3.40;;
5688;SDS011;2869;50.432;8.680;2022-09-01T02:39:53;3.90;;;3.60;;
5688;SDS011;2869;50.432;8.680;2022-09-01T02:42:21;4.03;;;3.70;;
5688;SDS011;2869;50.432;8.680;2022-09-01T02:44:50;4.00;;;3.70;;
5688;SDS011;2869;50.432;8.680;2022-09-01T02:47:17;4.07;;;3.40;;
5688;SDS011;2869;50.432;8.680;2022-09-01T02:49:44;4.00;;;3.70;;
5688;SDS011;2869;50.432;8.680;2022-09-01T02:52:12;4.70;;;3.63;;
5688;SDS011;2869;50.432;8.680;2022-09-01T02:54:42;3.67;;;3.37;;
5688;SDS011;2869;50.432;8.680;2022-09-01T02:57:09;5.40;;;3.60;;
5688;SDS011;2869;50.432;8.680;2022-09-01T02:59:36;4.70;;;3.00;;
5688;SDS011;2869;50.432;8.680;2022-09-01T03:02:03;5.23;;;3.93;;
5688;SDS011;2869;50.432;8.680;2022-09-01T03:04:32;3.93;;;3.63;;
5688;SDS011;2869;50.432;8.680;2022-09-01T03:06:59;3.60;;;3.30;;
5688;SDS011;2869;50.432;8.680;2022-09-01T03:09:27;7.30;;;3.87;;
5688;SDS011;2869;50.432;8.680;2022-09-01T03:11:54;3.73;;;3.43;;
5688;SDS011;2869;50.432;8.680;2022-09-01T03:14:21;3.70;;;3.37;;
5688;SDS011;2869;50.432;8.680;2022-09-01T03:16:48;4.17;;;3.20;;
5688;SDS011;2869;50.432;8.680;2022-09-01T03:19:15;3.47;;;3.20;;
5688;SDS011;2869;50.432;8.680;2022-09-01T03:21:43;4.67;;;3.93;;
5688;SDS011;2869;50.432;8.680;2022-09-01T03:24:12;3.80;;;3.50;;
5688;SDS011;2869;50.432;8.680;2022-09-01T03:26:43;5.80;;;3.67;;
5688;SDS011;2869;50.432;8.680;2022-09-01T03:29:11;4.83;;;3.70;;
5688;SDS011;2869;50.432;8.680;2022-09-01T03:31:39;4.20;;;3.90;;
5688;SDS011;2869;50.432;8.680;2022-09-01T03:34:06;6.20;;;3.27;;
5688;SDS011;2869;50.432;8.680;2022-09-01T03:36:35;5.20;;;3.77;;
5688;SDS011;2869;50.432;8.680;2022-09-01T03:39:02;8.93;;;4.00;;
5688;SDS011;2869;50.432;8.680;2022-09-01T03:41:29;4.73;;;3.47;;
5688;SDS011;2869;50.432;8.680;2022-09-01T03:43:58;4.70;;;3.60;;
5688;SDS011;2869;50.432;8.680;2022-09-01T03:46:25;4.23;;;3.50;;
5688;SDS011;2869;50.432;8.680;2022-09-01T03:48:55;8.13;;;4.10;;
5688;SDS011;2869;50.432;8.680;2022-09-01T03:51:25;8.10;;;4.07;;
5688;SDS011;2869;50.432;8.680;2022-09-01T03:53:54;4.30;;;3.90;;
5688;SDS011;2869;50.432;8.680;2022-09-01T03:56:23;4.50;;;3.40;;
5688;SDS011;2869;50.432;8.680;2022-09-01T03:58:51;3.93;;;3.63;;
5688;SDS011;2869;50.432;8.680;2022-09-01T04:01:21;3.23;;;3.03;;
5688;SDS011;2869;50.432;8.680;2022-09-01T04:03:48;6.67;;;3.80;;
5688;SDS011;2869;50.432;8.680;2022-09-01T04:06:16;5.13;;;3.77;;
5688;SDS011;2869;50.432;8.680;2022-09-01T04:08:43;5.20;;;3.40;;
5688;SDS011;2869;50.432;8.680;2022-09-01T04:11:11;5.40;;;3.60;;
5688;SDS011;2869;50.432;8.680;2022-09-01T04:13:40;7.07;;;4.40;;
5688;SDS011;2869;50.432;8.680;2022-09-01T04:16:14;4.10;;;3.70;;
5688;SDS011;2869;50.432;8.680;2022-09-01T04:19:06;10.17;;;5.30;;
5688;SDS011;2869;50.432;8.680;2022-09-01T04:21:43;4.03;;;3.57;;
5688;SDS011;2869;50.432;8.680;2022-09-01T04:24:10;5.90;;;4.27;;
5688;SDS011;2869;50.432;8.680;2022-09-01T04:26:39;9.33;;;3.60;;
5688;SDS011;2869;50.432;8.680;2022-09-01T04:29:06;3.57;;;3.37;;
5688;SDS011;2869;50.432;8.680;2022-09-01T04:31:35;4.97;;;3.40;;
5688;SDS011;2869;50.432;8.680;2022-09-01T04:34:04;4.40;;;3.30;;
5688;SDS011;2869;50.432;8.680;2022-09-01T04:36:38;7.43;;;3.97;;
5688;SDS011;2869;50.432;8.680;2022-09-01T04:39:07;9.20;;;3.70;;
5688;SDS011;2869;50.432;8.680;2022-09-01T04:41:36;3.80;;;3.50;;
5688;SDS011;2869;50.432;8.680;2022-09-01T04:44:05;3.37;;;3.10;;
5688;SDS011;2869;50.432;8.680;2022-09-01T04:46:33;6.27;;;3.70;;
5688;SDS011;2869;50.432;8.680;2022-09-01T04:49:03;6.10;;;3.20;;
5688;SDS011;2869;50.432;8.680;2022-09-01T04:51:37;4.60;;;3.50;;
5688;SDS011;2869;50.432;8.680;2022-09-01T04:54:04;3.50;;;3.20;;
5688;SDS011;2869;50.432;8.680;2022-09-01T04:56:33;6.00;;;3.47;;
5688;SDS011;2869;50.432;8.680;2022-09-01T04:59:00;5.17;;;3.40;;
5688;SDS011;2869;50.432;8.680;2022-09-01T05:01:28;9.77;;;3.50;;
5688;SDS011;2869;50.432;8.680;2022-09-01T05:03:54;4.37;;;3.90;;
5688;SDS011;2869;50.432;8.680;2022-09-01T05:06:25;3.30;;;3.07;;
5688;SDS011;2869;50.432;8.680;2022-09-01T05:08:54;3.83;;;3.37;;
5688;SDS011;2869;50.432;8.680;2022-09-01T05:11:22;4.60;;;3.90;;
5688;SDS011;2869;50.432;8.680;2022-09-01T05:13:49;6.80;;;3.97;;
5688;SDS011;2869;50.432;8.680;2022-09-01T05:16:22;5.20;;;3.60;;
5688;SDS011;2869;50.432;8.680;2022-09-01T05:18:51;4.50;;;3.70;;
5688;SDS011;2869;50.432;8.680;2022-09-01T05:21:21;6.50;;;4.40;;
5688;SDS011;2869;50.432;8.680;2022-09-01T05:23:52;4.53;;;4.13;;
5688;SDS011;2869;50.432;8.680;2022-09-01T05:26:22;5.03;;;3.77;;
5688;SDS011;2869;50.432;8.680;2022-09-01T05:28:51;6.87;;;3.70;;
5688;SDS011;2869;50.432;8.680;2022-09-01T05:31:20;5.30;;;3.87;;
5688;SDS011;2869;50.432;8.680;2022-09-01T05:33:48;4.93;;;3.60;;
5688;SDS011;2869;50.432;8.680;2022-09-01T05:36:16;12.13;;;3.70;;
5688;SDS011;2869;50.432;8.680;2022-09-01T05:38:45;3.60;;;3.30;;
5688;SDS011;2869;50.432;8.680;2022-09-01T05:41:13;4.50;;;3.83;;
5688;SDS011;2869;50.432;8.680;2022-09-01T05:43:43;5.60;;;3.77;;
5688;SDS011;2869;50.432;8.680;2022-09-01T05:46:14;4.30;;;3.87;;
5688;SDS011;2869;50.432;8.680;2022-09-01T05:48:43;3.37;;;3.03;;
5688;SDS011;2869;50.432;8.680;2022-09-01T05:51:14;5.37;;;3.67;;
5688;SDS011;2869;50.432;8.680;2022-09-01T05:53:43;4.00;;;3.70;;
5688;SDS011;2869;50.432;8.680;2022-09-01T05:56:11;3.93;;;3.53;;
5688;SDS011;2869;50.432;8.680;2022-09-01T05:58:39;3.60;;;3.30;;
5688;SDS011;2869;50.432;8.680;2022-09-01T06:01:10;3.67;;;3.37;;
5688;SDS011;2869;50.432;8.680;2022-09-01T06:03:46;3.57;;;3.27;;
5688;SDS011;2869;50.432;8.680;2022-09-01T06:06:13;4.57;;;3.70;;
5688;SDS011;2869;50.432;8.680;2022-09-01T06:08:40;4.63;;;3.50;;
5688;SDS011;2869;50.432;8.680;2022-09-01T06:11:12;4.10;;;3.40;;
5688;SDS011;2869;50.432;8.680;2022-09-01T06:13:39;18.43;;;3.90;;
5688;SDS011;2869;50.432;8.680;2022-09-01T06:16:06;4.53;;;3.50;;
5688;SDS011;2869;50.432;8.680;2022-09-01T06:18:34;6.13;;;3.30;;
5688;SDS011;2869;50.432;8.680;2022-09-01T06:21:01;4.83;;;3.20;;
5688;SDS011;2869;50.432;8.680;2022-09-01T06:23:29;7.23;;;3.30;;
5688;SDS011;2869;50.432;8.680;2022-09-01T06:25:56;7.70;;;3.40;;
5688;SDS011;2869;50.432;8.680;2022-09-01T06:28:24;6.57;;;3.50;;
5688;SDS011;2869;50.432;8.680;2022-09-01T06:30:53;3.93;;;2.93;;
5688;SDS011;2869;50.432;8.680;2022-09-01T06:33:21;10.03;;;3.53;;
5688;SDS011;2869;50.432;8.680;2022-09-01T06:35:50;6.13;;;3.27;;
5688;SDS011;2869;50.432;8.680;2022-09-01T06:38:19;3.77;;;3.13;;
5688;SDS011;2869;50.432;8.680;2022-09-01T06:40:46;3.30;;;3.00;;
5688;SDS011;2869;50.432;8.680;2022-09-01T06:43:13;4.80;;;3.10;;
5688;SDS011;2869;50.432;8.680;2022-09-01T06:45:41;3.77;;;3.10;;
5688;SDS011;2869;50.432;8.680;2022-09-01T06:48:10;9.03;;;3.23;;
5688;SDS011;2869;50.432;8.680;2022-09-01T06:50:40;3.23;;;2.70;;
5688;SDS011;2869;50.432;8.680;2022-09-01T06:53:09;3.63;;;2.80;;
5688;SDS011;2869;50.432;8.680;2022-09-01T06:55:40;5.67;;;2.63;;
5688;SDS011;2869;50.432;8.680;2022-09-01T06:58:08;3.30;;;2.80;;
5688;SDS011;2869;50.432;8.680;2022-09-01T07:00:39;3.63;;;2.77;;
5688;SDS011;2869;50.432;8.680;2022-09-01T07:03:07;6.87;;;2.67;;
5688;SDS011;2869;50.432;8.680;2022-09-01T07:05:37;3.40;;;2.80;;
5688;SDS011;2869;50.432;8.680;2022-09-01T07:08:04;6.30;;;2.80;;
5688;SDS011;2869;50.432;8.680;2022-09-01T07:10:38;6.30;;;3.50;;
5688;SDS011;2869;50.432;8.680;2022-09-01T07:13:09;6.83;;;3.03;;
5688;SDS011;2869;50.432;8.680;2022-09-01T07:15:39;4.67;;;2.83;;
5688;SDS011;2869;50.432;8.680;2022-09-01T07:18:07;8.60;;;3.30;;
5688;SDS011;2869;50.432;8.680;2022-09-01T07:20:34;4.73;;;2.60;;
5688;SDS011;2869;50.432;8.680;2022-09-01T07:23:03;3.23;;;2.70;;
5688;SDS011;2869;50.432;8.680;2022-09-01T07:25:30;4.33;;;2.97;;
5688;SDS011;2869;50.432;8.680;2022-09-01T07:28:04;5.50;;;3.20;;
5688;SDS011;2869;50.432;8.680;2022-09-01T07:30:31;7.50;;;3.30;;
5688;SDS011;2869;50.432;8.680;2022-09-01T07:32:59;5.80;;;2.57;;
5688;SDS011;2869;50.432;8.680;2022-09-01T07:35:26;6.63;;;2.80;;
5688;SDS011;2869;50.432;8.680;2022-09-01T07:37:55;5.13;;;3.17;;
5688;SDS011;2869;50.432;8.680;2022-09-01T07:40:21;5.50;;;2.90;;
5688;SDS011;2869;50.432;8.680;2022-09-01T07:42:53;4.63;;;2.67;;
5688;SDS011;2869;50.432;8.680;2022-09-01T07:45:22;4.87;;;2.87;;
5688;SDS011;2869;50.432;8.680;2022-09-01T07:47:50;3.77;;;2.37;;
5688;SDS011;2869;50.432;8.680;2022-09-01T07:50:17;5.00;;;2.83;;
5688;SDS011;2869;50.432;8.680;2022-09-01T07:52:44;4.10;;;2.80;;
5688;SDS011;2869;50.432;8.680;2022-09-01T07:55:14;5.57;;;2.97;;
5688;SDS011;2869;50.432;8.680;2022-09-01T07:57:42;4.30;;;3.03;;
5688;SDS011;2869;50.432;8.680;2022-09-01T08:00:10;7.13;;;3.20;;
5688;SDS011;2869;50.432;8.680;2022-09-01T08:02:40;6.27;;;3.17;;
5688;SDS011;2869;50.432;8.680;2022-09-01T08:05:08;6.20;;;3.13;;
5688;SDS011;2869;50.432;8.680;2022-09-01T08:07:38;10.07;;;3.07;;
5688;SDS011;2869;50.432;8.680;2022-09-01T08:10:05;6.13;;;2.60;;
5688;SDS011;2869;50.432;8.680;2022-09-01T08:12:33;6.50;;;3.40;;
5688;SDS011;2869;50.432;8.680;2022-09-01T08:15:00;16.23;;;3.00;;
5688;SDS011;2869;50.432;8.680;2022-09-01T08:17:27;8.13;;;2.80;;
5688;SDS011;2869;50.432;8.680;2022-09-01T08:19:55;3.33;;;2.70;;
5688;SDS011;2869;50.432;8.680;2022-09-01T08:22:22;3.47;;;3.00;;
5688;SDS011;2869;50.432;8.680;2022-09-01T08:24:49;2.70;;;2.50;;
5688;SDS011;2869;50.432;8.680;2022-09-01T08:27:16;8.77;;;2.60;;
5688;SDS011;2869;50.432;8.680;2022-09-01T08:29:43;11.23;;;2.80;;
5688;SDS011;2869;50.432;8.680;2022-09-01T08:32:10;5.47;;;2.50;;
5688;SDS011;2869;50.432;8.680;2022-09-01T08:34:37;15.40;;;2.70;;
5688;SDS011;2869;50.432;8.680;2022-09-01T08:37:05;7.30;;;2.50;;
5688;SDS011;2869;50.432;8.680;2022-09-01T08:39:32;4.90;;;3.10;;
5688;SDS011;2869;50.432;8.680;2022-09-01T08:42:01;5.27;;;2.40;;
5688;SDS011;2869;50.432;8.680;2022-09-01T08:44:35;4.83;;;2.57;;
5688;SDS011;2869;50.432;8.680;2022-09-01T08:47:07;7.00;;;2.30;;
5688;SDS011;2869;50.432;8.680;2022-09-01T08:49:36;4.27;;;2.47;;
5688;SDS011;2869;50.432;8.680;2022-09-01T08:52:07;8.43;;;2.40;;
5688;SDS011;2869;50.432;8.680;2022-09-01T08:54:43;5.07;;;2.53;;
5688;SDS011;2869;50.432;8.680;2022-09-01T08:57:13;6.10;;;2.57;;
5688;SDS011;2869;50.432;8.680;2022-09-01T08:59:43;3.23;;;2.20;;
5688;SDS011;2869;50.432;8.680;2022-09-01T09:02:19;6.93;;;2.60;;
5688;SDS011;2869;50.432;8.680;2022-09-01T09:04:54;5.43;;;2.30;;
5688;SDS011;2869;50.432;8.680;2022-09-01T09:07:30;4.80;;;2.20;;
5688;SDS011;2869;50.432;8.680;2022-09-01T09:10:13;4.70;;;2.17;;
5688;SDS011;2869;50.432;8.680;2022-09-01T09:12:48;6.50;;;2.63;;
5688;SDS011;2869;50.432;8.680;2022-09-01T09:15:26;5.60;;;2.50;;
5688;SDS011;2869;50.432;8.680;2022-09-01T09:18:05;5.70;;;2.40;;
5688;SDS011;2869;50.432;8.680;2022-09-01T09:20:38;2.93;;;2.43;;
5688;SDS011;2869;50.432;8.680;2022-09-01T09:23:10;6.87;;;2.03;;
5688;SDS011;2869;50.432;8.680;2022-09-01T09:25:57;2.90;;;2.40;;
5688;SDS011;2869;50.432;8.680;2022-09-01T09:28:24;11.33;;;2.27;;
5688;SDS011;2869;50.432;8.680;2022-09-01T09:30:50;3.83;;;2.07;;
5688;SDS011;2869;50.432;8.680;2022-09-01T09:33:33;8.87;;;2.57;;
5688;SDS011;2869;50.432;8.680;2022-09-01T09:36:15;2.10;;;1.90;;
5688;SDS011;2869;50.432;8.680;2022-09-01T09:38:45;3.50;;;2.27;;
5688;SDS011;2869;50.432;8.680;2022-09-01T09:41:16;7.20;;;2.47;;
5688;SDS011;2869;50.432;8.680;2022-09-01T09:43:45;4.00;;;1.97;;
5688;SDS011;2869;50.432;8.680;2022-09-01T09:46:22;3.00;;;1.60;;
5688;SDS011;2869;50.432;8.680;2022-09-01T09:49:05;3.00;;;2.23;;
5688;SDS011;2869;50.432;8.680;2022-09-01T09:51:34;11.60;;;2.30;;
5688;SDS011;2869;50.432;8.680;2022-09-01T09:54:16;2.07;;;1.90;;
5688;SDS011;2869;50.432;8.680;2022-09-01T09:56:45;4.23;;;2.00;;
5688;SDS011;2869;50.432;8.680;2022-09-01T09:59:15;4.13;;;2.07;;
5688;SDS011;2869;50.432;8.680;2022-09-01T10:01:45;2.10;;;1.90;;
5688;SDS011;2869;50.432;8.680;2022-09-01T10:04:30;2.83;;;1.67;;
5688;SDS011;2869;50.432;8.680;2022-09-01T10:06:58;3.20;;;2.00;;
5688;SDS011;2869;50.432;8.680;2022-09-01T10:09:36;1.97;;;1.70;;
5688;SDS011;2869;50.432;8.680;2022-09-01T10:12:03;3.77;;;2.03;;
5688;SDS011;2869;50.432;8.680;2022-09-01T10:14:32;2.90;;;1.70;;
5688;SDS011;2869;50.432;8.680;2022-09-01T10:17:08;6.30;;;2.10;;
5688;SDS011;2869;50.432;8.680;2022-09-01T10:19:38;4.27;;;2.10;;
5688;SDS011;2869;50.432;8.680;2022-09-01T10:22:13;3.60;;;1.83;;
5688;SDS011;2869;50.432;8.680;2022-09-01T10:24:41;2.20;;;1.97;;
5688;SDS011;2869;50.432;8.680;2022-09-01T10:27:10;4.70;;;2.30;;
5688;SDS011;2869;50.432;8.680;2022-09-01T10:29:45;5.77;;;2.17;;
5688;SDS011;2869;50.432;8.680;2022-09-01T10:32:17;9.30;;;2.30;;
5688;SDS011;2869;50.432;8.680;2022-09-01T10:34:46;3.97;;;2.20;;
5688;SDS011;2869;50.432;8.680;2022-09-01T10:37:14;5.57;;;2.57;;
5688;SDS011;2869;50.432;8.680;2022-09-01T10:42:44;2.53;;;1.70;;
5688;SDS011;2869;50.432;8.680;2022-09-01T10:45:18;1.87;;;1.77;;
5688;SDS011;2869;50.432;8.680;2022-09-01T10:47:55;2.13;;;1.90;;
5688;SDS011;2869;50.432;8.680;2022-09-01T10:50:23;2.90;;;2.03;;
5688;SDS011;2869;50.432;8.680;2022-09-01T10:52:53;6.63;;;1.77;;
5688;SDS011;2869;50.432;8.680;2022-09-01T10:55:27;3.87;;;1.97;;
5688;SDS011;2869;50.432;8.680;2022-09-01T10:58:11;2.20;;;1.90;;
5688;SDS011;2869;50.432;8.680;2022-09-01T11:00:50;4.00;;;1.70;;
5688;SDS011;2869;50.432;8.680;2022-09-01T11:09:18;4.23;;;1.87;;
5688;SDS011;2869;50.432;8.680;2022-09-01T11:11:54;9.80;;;2.17;;
5688;SDS011;2869;50.432;8.680;2022-09-01T11:14:48;5.87;;;2.23;;
5688;SDS011;2869;50.432;8.680;2022-09-01T11:17:18;3.60;;;2.30;;
5688;SDS011;2869;50.432;8.680;2022-09-01T11:19:53;6.57;;;2.23;;
5688;SDS011;2869;50.432;8.680;2022-09-01T11:22:26;3.20;;;2.00;;
5688;SDS011;2869;50.432;8.680;2022-09-01T11:25:07;2.47;;;1.90;;
5688;SDS011;2869;50.432;8.680;2022-09-01T11:31:01;2.77;;;2.57;;
5688;SDS011;2869;50.432;8.680;2022-09-01T11:33:49;2.10;;;2.00;;
5688;SDS011;2869;50.432;8.680;2022-09-01T11:36:28;4.33;;;2.00;;
5688;SDS011;2869;50.432;8.680;2022-09-01T11:39:03;2.70;;;2.00;;
5688;SDS011;2869;50.432;8.680;2022-09-01T11:41:34;3.10;;;1.83;;
5688;SDS011;2869;50.432;8.680;2022-09-01T11:44:16;2.70;;;2.03;;
5688;SDS011;2869;50.432;8.680;2022-09-01T11:46:48;1.70;;;1.60;;
5688;SDS011;2869;50.432;8.680;2022-09-01T11:49:24;3.57;;;2.00;;
5688;SDS011;2869;50.432;8.680;2022-09-01T11:51:53;2.27;;;2.00;;
5688;SDS011;2869;50.432;8.680;2022-09-01T11:54:21;3.90;;;2.23;;
5688;SDS011;2869;50.432;8.680;2022-09-01T11:56:48;2.67;;;2.10;;
5688;SDS011;2869;50.432;8.680;2022-09-01T11:59:28;4.33;;;1.90;;
5688;SDS011;2869;50.432;8.680;2022-09-01T12:01:57;3.40;;;2.00;;
5688;SDS011;2869;50.432;8.680;2022-09-01T12:04:25;6.67;;;2.40;;
5688;SDS011;2869;50.432;8.680;2022-09-01T12:06:58;3.10;;;2.10;;
5688;SDS011;2869;50.432;8.680;2022-09-01T12:09:33;18.40;;;7.90;;
5688;SDS011;2869;50.432;8.680;2022-09-01T12:12:01;25.57;;;10.00;;
5688;SDS011;2869;50.432;8.680;2022-09-01T12:14:29;3.43;;;2.63;;
5688;SDS011;2869;50.432;8.680;2022-09-01T12:16:59;2.80;;;2.13;;
5688;SDS011;2869;50.432;8.680;2022-09-01T12:19:28;2.80;;;2.60;;
5688;SDS011;2869;50.432;8.680;2022-09-01T12:21:58;3.80;;;2.17;;
5688;SDS011;2869;50.432;8.680;2022-09-01T12:24:27;3.27;;;2.00;;
5688;SDS011;2869;50.432;8.680;2022-09-01T12:26:57;2.20;;;2.00;;
5688;SDS011;2869;50.432;8.680;2022-09-01T12:29:25;2.20;;;2.10;;
5688;SDS011;2869;50.432;8.680;2022-09-01T12:31:52;2.40;;;2.20;;
5688;SDS011;2869;50.432;8.680;2022-09-01T12:34:25;2.00;;;1.80;;
5688;SDS011;2869;50.432;8.680;2022-09-01T12:37:07;2.60;;;2.40;;
5688;SDS011;2869;50.432;8.680;2022-09-01T12:39:37;2.40;;;2.03;;
5688;SDS011;2869;50.432;8.680;2022-09-01T12:42:08;5.83;;;2.53;;
5688;SDS011;2869;50.432;8.680;2022-09-01T12:44:44;4.10;;;2.43;;
5688;SDS011;2869;50.432;8.680;2022-09-01T12:50:33;3.47;;;2.20;;
5688;SDS011;2869;50.432;8.680;2022-09-01T12:53:17;2.73;;;2.10;;
5688;SDS011;2869;50.432;8.680;2022-09-01T12:55:53;4.53;;;2.00;;
5688;SDS011;2869;50.432;8.680;2022-09-01T12:58:31;2.13;;;2.03;;
5688;SDS011;2869;50.432;8.680;2022-09-01T13:01:00;6.30;;;2.10;;
5688;SDS011;2869;50.432;8.680;2022-09-01T13:03:29;2.63;;;2.00;;
5688;SDS011;2869;50.432;8.680;2022-09-01T13:05:59;2.40;;;2.10;;
5688;SDS011;2869;50.432;8.680;2022-09-01T13:08:27;5.13;;;2.40;;
5688;SDS011;2869;50.432;8.680;2022-09-01T13:10:58;2.77;;;2.53;;
5688;SDS011;2869;50.432;8.680;2022-09-01T13:13:28;7.60;;;2.40;;
5688;SDS011;2869;50.432;8.680;2022-09-01T13:15:56;3.20;;;2.00;;
5688;SDS011;2869;50.432;8.680;2022-09-01T13:18:25;2.10;;;1.90;;
5688;SDS011;2869;50.432;8.680;2022-09-01T13:20:53;3.40;;;2.20;;
5688;SDS011;2869;50.432;8.680;2022-09-01T13:23:21;2.80;;;2.27;;
5688;SDS011;2869;50.432;8.680;2022-09-01T13:25:48;2.20;;;2.00;;
5688;SDS011;2869;50.432;8.680;2022-09-01T13:28:15;4.63;;;2.33;;
5688;SDS011;2869;50.432;8.680;2022-09-01T13:30:43;2.50;;;2.30;;
5688;SDS011;2869;50.432;8.680;2022-09-01T13:33:13;4.60;;;2.00;;
5688;SDS011;2869;50.432;8.680;2022-09-01T13:35:40;2.60;;;2.40;;
5688;SDS011;2869;50.432;8.680;2022-09-01T13:38:06;2.83;;;2.57;;
5688;SDS011;2869;50.432;8.680;2022-09-01T13:40:34;2.20;;;2.00;;
5688;SDS011;2869;50.432;8.680;2022-09-01T13:43:01;4.00;;;2.13;;
5688;SDS011;2869;50.432;8.680;2022-09-01T13:45:29;6.10;;;2.30;;
5688;SDS011;2869;50.432;8.680;2022-09-01T13:47:55;6.93;;;2.50;;
5688;SDS011;2869;50.432;8.680;2022-09-01T13:50:23;2.50;;;2.30;;
5688;SDS011;2869;50.432;8.680;2022-09-01T13:52:53;2.40;;;2.20;;
5688;SDS011;2869;50.432;8.680;2022-09-01T13:55:23;4.07;;;2.60;;
5688;SDS011;2869;50.432;8.680;2022-09-01T13:57:53;5.23;;;3.00;;
5688;SDS011;2869;50.432;8.680;2022-09-01T14:00:21;3.97;;;2.67;;
5688;SDS011;2869;50.432;8.680;2022-09-01T14:02:50;2.60;;;2.40;;
5688;SDS011;2869;50.432;8.680;2022-09-01T14:05:21;3.03;;;2.83;;
5688;SDS011;2869;50.432;8.680;2022-09-01T14:07:49;3.00;;;2.73;;
5688;SDS011;2869;50.432;8.680;2022-09-01T14:10:17;9.73;;;2.80;;
5688;SDS011;2869;50.432;8.680;2022-09-01T14:12:45;3.97;;;2.60;;
5688;SDS011;2869;50.432;8.680;2022-09-01T14:15:14;2.53;;;2.43;;
5688;SDS011;2869;50.432;8.680;2022-09-01T14:17:42;2.80;;;2.60;;
5688;SDS011;2869;50.432;8.680;2022-09-01T14:20:11;2.70;;;2.50;;
5688;SDS011;2869;50.432;8.680;2022-09-01T14:22:39;5.70;;;2.47;;
5688;SDS011;2869;50.432;8.680;2022-09-01T14:25:06;9.23;;;2.40;;
5688;SDS011;2869;50.432;8.680;2022-09-01T14:27:34;3.83;;;2.07;;
5688;SDS011;2869;50.432;8.680;2022-09-01T14:30:01;4.70;;;2.17;;
5688;SDS011;2869;50.432;8.680;2022-09-01T14:32:31;3.00;;;2.27;;
5688;SDS011;2869;50.432;8.680;2022-09-01T14:34:58;3.87;;;2.30;;
5688;SDS011;2869;50.432;8.680;2022-09-01T14:37:25;4.80;;;2.40;;
5688;SDS011;2869;50.432;8.680;2022-09-01T14:39:52;2.60;;;2.40;;
5688;SDS011;2869;50.432;8.680;2022-09-01T14:42:21;2.67;;;2.47;;
5688;SDS011;2869;50.432;8.680;2022-09-01T14:44:49;3.53;;;2.70;;
5688;SDS011;2869;50.432;8.680;2022-09-01T14:47:17;2.27;;;2.07;;
5688;SDS011;2869;50.432;8.680;2022-09-01T14:49:45;2.27;;;2.00;;
5688;SDS011;2869;50.432;8.680;2022-09-01T14:52:12;5.03;;;2.33;;
5688;SDS011;2869;50.432;8.680;2022-09-01T14:54:39;3.70;;;2.57;;
5688;SDS011;2869;50.432;8.680;2022-09-01T14:57:07;2.40;;;2.20;;
5688;SDS011;2869;50.432;8.680;2022-09-01T14:59:33;2.00;;;1.80;;
5688;SDS011;2869;50.432;8.680;2022-09-01T15:02:01;3.47;;;2.30;;
5688;SDS011;2869;50.432;8.680;2022-09-01T15:04:28;3.30;;;2.30;;
5688;SDS011;2869;50.432;8.680;2022-09-01T15:06:57;2.43;;;2.30;;
5688;SDS011;2869;50.432;8.680;2022-09-01T15:09:24;2.10;;;2.00;;
5688;SDS011;2869;50.432;8.680;2022-09-01T15:11:51;3.57;;;2.30;;
5688;SDS011;2869;50.432;8.680;2022-09-01T15:14:17;1.90;;;1.80;;
5688;SDS011;2869;50.432;8.680;2022-09-01T15:16:44;2.73;;;2.13;;
5688;SDS011;2869;50.432;8.680;2022-09-01T15:19:11;5.03;;;2.70;;
5688;SDS011;2869;50.432;8.680;2022-09-01T15:21:39;2.50;;;1.97;;
5688;SDS011;2869;50.432;8.680;2022-09-01T15:24:09;3.00;;;2.20;;
5688;SDS011;2869;50.432;8.680;2022-09-01T15:26:36;2.83;;;2.43;;
5688;SDS011;2869;50.432;8.680;2022-09-01T15:29:04;5.33;;;2.30;;
5688;SDS011;2869;50.432;8.680;2022-09-01T15:31:37;4.60;;;2.63;;
5688;SDS011;2869;50.432;8.680;2022-09-01T15:34:04;2.63;;;2.10;;
5688;SDS011;2869;50.432;8.680;2022-09-01T15:36:33;2.20;;;2.00;;
5688;SDS011;2869;50.432;8.680;2022-09-01T15:39:01;3.50;;;1.77;;
5688;SDS011;2869;50.432;8.680;2022-09-01T15:41:30;5.53;;;2.20;;
5688;SDS011;2869;50.432;8.680;2022-09-01T15:43:59;2.67;;;2.33;;
5688;SDS011;2869;50.432;8.680;2022-09-01T15:46:27;11.33;;;2.20;;